Time;durP1;ratioP1;P1;durP2;ratioP2;P2;SDS_P1;SDS_P2;PMS_P1;PMS_P2;Temp;Humidity;BMP_temperature;BMP_pressure;BME280_temperature;BME280_humidity;BME280_pressure;Samples;Min_cycle;Max_cycle;Signal;HPM_P1;HPM_P2
2022/06/24 00:00:12;;;;;;;6.07;1.60;;;;;;;22.00;76.60;98983.97;343553;28;1475;-78
2022/06/24 00:00:33;;;;;;;5.93;1.60;;;;;;;22.00;76.44;98988.41;344994;28;1071;-78
2022/06/24 00:01:03;;;;;;;5.07;1.63;;;;;;;21.99;77.09;98981.44;342592;28;867;-78
2022/06/24 00:01:15;;;;;;;7.68;1.70;;;;;;;21.99;77.53;98981.44;342627;28;1712;-79
2022/06/24 00:01:30;;;;;;;8.35;1.80;;;;;;;21.99;77.54;98989.38;343085;28;1115;-78
2022/06/24 00:02:01;;;;;;;6.15;1.70;;;;;;;22.01;77.36;98982.13;342274;28;1064;-78
2022/06/24 00:02:21;;;;;;;7.95;1.70;;;;;;;22.03;77.68;98977.53;340069;29;1771;-78
2022/06/24 00:02:35;;;;;;;8.40;1.80;;;;;;;22.04;77.75;98976.59;343005;28;1467;-78
2022/06/24 00:02:50;;;;;;;4.82;1.70;;;;;;;22.03;77.27;98973.06;343370;28;1967;-78
2022/06/24 00:03:03;;;;;;;4.20;1.60;;;;;;;22.04;76.59;98974.75;343464;28;1026;-78
2022/06/24 00:03:19;;;;;;;5.28;1.52;;;;;;;22.05;76.21;98975.59;341860;28;1818;-79
2022/06/24 00:03:33;;;;;;;6.07;1.50;;;;;;;22.05;76.30;98975.59;342693;28;1303;-78
2022/06/24 00:03:47;;;;;;;6.13;1.42;;;;;;;22.04;76.62;98985.34;341944;28;951;-78
2022/06/24 00:04:00;;;;;;;5.28;1.30;;;;;;;22.04;77.13;98973.94;341949;28;1098;-78
2022/06/24 00:04:43;;;;;;;4.28;1.40;;;;;;;22.04;76.78;98976.59;340154;29;2047;-78
2022/06/24 00:05:13;;;;;;;8.25;1.50;;;;;;;22.02;76.25;98981.19;340710;29;1182;-77
2022/06/24 00:06:01;;;;;;;6.25;1.60;;;;;;;21.99;76.21;98981.44;341154;28;1141;-78
2022/06/24 00:06:38;;;;;;;5.78;1.55;;;;;;;21.97;76.13;98976.28;339909;29;1757;-78
2022/06/24 00:06:56;;;;;;;5.22;1.50;;;;;;;21.98;76.46;98982.44;342801;28;7982;-78
2022/06/24 00:07:16;;;;;;;4.55;1.35;;;;;;;21.99;76.42;98986.72;342839;28;1603;-78
2022/06/24 00:07:28;;;;;;;4.20;1.40;;;;;;;22.00;76.52;98983.97;342937;28;1558;-78
2022/06/24 00:07:45;;;;;;;4.45;1.52;;;;;;;22.02;76.88;98975.88;344618;28;847;-78
2022/06/24 00:07:58;;;;;;;4.72;1.50;;;;;;;22.02;77.12;98973.25;344542;28;1669;-77
2022/06/24 00:08:10;;;;;;;4.72;1.40;;;;;;;22.05;77.08;98975.59;341694;28;1798;-77
2022/06/24 00:08:22;;;;;;;4.85;1.50;;;;;;;22.06;77.00;98977.28;342090;28;1595;-78
2022/06/24 00:08:46;;;;;;;5.57;1.55;;;;;;;22.08;76.73;98970.03;341334;28;3210;-78
2022/06/24 00:08:59;;;;;;;7.18;1.52;;;;;;;22.09;76.55;98966.41;340751;29;1185;-78
2022/06/24 00:09:13;;;;;;;7.03;1.55;;;;;;;22.10;76.34;98973.38;340560;29;1032;-77
2022/06/24 00:09:27;;;;;;;5.88;1.50;;;;;;;22.11;76.23;98970.59;341828;28;1466;-78
2022/06/24 00:09:40;;;;;;;5.55;1.40;;;;;;;22.11;76.30;98972.38;341921;28;1255;-78
2022/06/24 00:09:52;;;;;;;5.43;1.40;;;;;;;22.13;76.46;98973.06;342185;28;1651;-78
2022/06/24 00:10:12;;;;;;;6.13;1.67;;;;;;;22.13;76.33;98968.63;343337;28;1147;-78
2022/06/24 00:10:31;;;;;;;6.82;1.85;;;;;;;22.15;76.40;98976.41;342859;28;1377;-78
2022/06/24 00:10:43;;;;;;;6.85;1.90;;;;;;;22.15;76.37;98973.78;342204;28;1015;-78
2022/06/24 00:10:55;;;;;;;5.40;1.70;;;;;;;22.16;77.10;98966.69;342359;28;1079;-78
2022/06/24 00:11:13;;;;;;;5.68;1.60;;;;;;;22.12;77.16;98964.31;342906;28;2061;-78
2022/06/24 00:11:27;;;;;;;8.38;1.77;;;;;;;22.15;76.92;98965.81;343202;28;1553;-78
2022/06/24 00:11:40;;;;;;;6.75;1.52;;;;;;;22.16;76.74;98962.22;343589;28;1276;-78
2022/06/24 00:12:12;;;;;;;4.93;1.50;;;;;;;22.15;76.60;98965.81;343622;28;1217;-78
2022/06/24 00:12:25;;;;;;;7.53;1.70;;;;;;;22.14;76.27;98965.00;344220;28;1798;-78
2022/06/24 00:12:37;;;;;;;6.10;1.40;;;;;;;22.15;76.37;98965.81;344084;28;2628;-78
2022/06/24 00:12:51;;;;;;;4.93;1.50;;;;;;;22.13;76.38;98957.19;344810;28;1039;-78
2022/06/24 00:13:05;;;;;;;5.18;1.58;;;;;;;22.09;76.51;98963.75;344026;28;1673;-78
2022/06/24 00:13:17;;;;;;;5.32;1.70;;;;;;;22.04;76.31;98963.34;343938;28;1676;-76
2022/06/24 00:13:39;;;;;;;5.78;1.83;;;;;;;21.98;76.21;98964.75;344482;28;1277;-77
2022/06/24 00:13:51;;;;;;;5.60;1.70;;;;;;;21.97;76.33;98964.88;343641;28;1038;-76
2022/06/24 00:14:07;;;;;;;5.45;1.70;;;;;;;21.95;76.40;98962.34;343550;28;1078;-76
2022/06/24 00:14:19;;;;;;;4.57;1.50;;;;;;;21.94;76.19;98958.06;342962;28;1725;-77
2022/06/24 00:14:32;;;;;;;5.90;1.45;;;;;;;21.94;76.29;98958.06;343868;28;1264;-77
2022/06/24 00:14:55;;;;;;;6.47;1.52;;;;;;;21.92;77.10;98955.53;342112;28;1072;-76
2022/06/24 00:15:07;;;;;;;6.68;1.70;;;;;;;21.94;76.88;98964.16;341076;28;1610;-76
2022/06/24 00:15:31;;;;;;;6.75;1.70;;;;;;;21.93;76.97;98957.22;343216;28;1081;-77
2022/06/24 00:15:43;;;;;;;5.97;1.80;;;;;;;21.93;77.31;98956.38;340991;29;1160;-77
2022/06/24 00:16:02;;;;;;;6.03;1.70;;;;;;;21.97;77.58;98956.94;341771;28;1341;-76
2022/06/24 00:16:14;;;;;;;5.43;1.60;;;;;;;21.99;77.42;98957.63;342228;28;1657;-77
2022/06/24 00:16:26;;;;;;;6.32;1.50;;;;;;;21.94;78.21;98944.81;343415;28;1599;-77
2022/06/24 00:16:54;;;;;;;7.03;1.58;;;;;;;21.83;77.60;98956.41;342616;28;1079;-77
2022/06/24 00:17:08;;;;;;;7.00;2.17;;;;;;;21.84;77.72;98957.22;342567;28;1058;-77
2022/06/24 00:17:20;;;;;;;7.32;2.08;;;;;;;21.79;77.04;98949.69;342560;28;1689;-77
2022/06/24 00:17:32;;;;;;;6.25;2.03;;;;;;;21.79;77.31;98954.97;343223;28;1384;-77
2022/06/24 00:17:44;;;;;;;6.63;2.00;;;;;;;21.79;77.41;98957.63;343671;28;1182;-77
2022/06/24 00:17:58;;;;;;;6.97;2.00;;;;;;;21.81;77.39;98953.06;343631;28;1023;-77
2022/06/24 00:18:15;;;;;;;6.10;1.80;;;;;;;21.80;77.30;98954.00;342895;28;1713;-78
2022/06/24 00:18:27;;;;;;;4.15;1.50;;;;;;;21.80;77.27;98951.38;342697;28;1500;-77
2022/06/24 00:18:39;;;;;;;4.80;1.52;;;;;;;21.79;77.10;98954.97;342555;28;1044;-77
2022/06/24 00:19:12;;;;;;;5.78;1.60;;;;;;;21.81;77.36;98953.06;340913;29;1057;-77
2022/06/24 00:19:25;;;;;;;5.03;1.70;;;;;;;21.83;78.14;98956.41;341912;28;1473;-78
2022/06/24 00:19:57;;;;;;;5.50;1.83;;;;;;;21.86;77.69;98950.81;342785;28;1047;-78
2022/06/24 00:20:16;;;;;;;4.88;1.88;;;;;;;21.89;77.76;98950.53;342384;28;1239;-78
2022/06/24 00:20:28;;;;;;;6.13;1.70;;;;;;;21.90;77.90;98952.19;341431;28;1543;-78
2022/06/24 00:20:46;;;;;;;5.53;1.60;;;;;;;21.92;78.58;98957.34;341154;28;2310;-78
2022/06/24 00:20:58;;;;;;;5.63;1.70;;;;;;;21.92;78.57;98955.53;342363;28;1559;-77
2022/06/24 00:21:12;;;;;;;7.00;1.80;;;;;;;21.93;78.94;98957.22;342254;28;1559;-77
2022/06/24 00:21:24;;;;;;;6.45;1.80;;;;;;;21.94;78.28;98958.88;341625;28;1746;-78
2022/06/24 00:21:36;;;;;;;6.47;1.70;;;;;;;21.95;78.15;98954.41;342307;28;1673;-78
2022/06/24 00:22:03;;;;;;;5.18;1.60;;;;;;;21.98;77.97;98953.31;341088;29;1047;-77
2022/06/24 00:22:16;;;;;;;5.68;1.70;;;;;;;21.98;77.65;98958.63;340851;29;1093;-78
2022/06/24 00:22:30;;;;;;;5.53;1.73;;;;;;;21.98;77.84;98959.44;341369;28;1219;-77
2022/06/24 00:22:48;;;;;;;4.07;1.60;;;;;;;21.99;77.85;98962.91;342213;28;1209;-78
2022/06/24 00:23:08;;;;;;;4.63;1.63;;;;;;;22.00;78.15;98956.66;342390;28;1147;-78
2022/06/24 00:23:22;;;;;;;5.15;1.70;;;;;;;21.99;78.67;98957.63;341495;28;1571;-78
2022/06/24 00:23:40;;;;;;;5.30;1.50;;;;;;;22.00;78.65;98962.78;342420;28;1473;-78
2022/06/24 00:23:52;;;;;;;4.72;1.42;;;;;;;22.01;78.43;98955.66;342391;28;868;-78
2022/06/24 00:24:04;;;;;;;4.32;1.50;;;;;;;22.02;78.07;98955.53;342177;28;1059;-78
2022/06/24 00:24:22;;;;;;;5.25;1.52;;;;;;;22.04;77.72;98958.06;341747;28;1753;-77
2022/06/24 00:24:37;;;;;;;5.25;1.70;;;;;;;22.05;77.25;98954.41;341082;29;1582;-77
2022/06/24 00:25:06;;;;;;;4.50;1.70;;;;;;;22.07;77.15;98953.31;341083;29;2905;-77
2022/06/24 00:25:23;;;;;;;4.82;1.45;;;;;;;22.07;77.04;98947.16;341092;29;1666;-78
2022/06/24 00:25:38;;;;;;;5.65;1.58;;;;;;;22.09;77.75;98955.81;341091;28;1785;-78
2022/06/24 00:25:50;;;;;;;5.95;1.65;;;;;;;22.10;77.19;98952.19;341125;28;1574;-78
2022/06/24 00:26:02;;;;;;;6.57;1.80;;;;;;;22.10;77.83;98957.50;342171;28;1119;-78
2022/06/24 00:26:14;;;;;;;5.25;1.60;;;;;;;22.12;77.36;98955.53;342347;28;1064;-78
2022/06/24 00:26:42;;;;;;;4.53;1.40;;;;;;;22.14;76.73;98953.59;343280;28;1474;-78
2022/06/24 00:26:56;;;;;;;5.57;1.60;;;;;;;22.11;76.66;98954.72;342907;28;1678;-78
2022/06/24 00:27:22;;;;;;;3.72;1.40;;;;;;;22.13;76.90;98951.91;342729;28;1068;-78
2022/06/24 00:27:35;;;;;;;6.25;1.63;;;;;;;22.13;77.13;98951.91;343102;28;1614;-78
2022/06/24 00:28:03;;;;;;;5.85;1.70;;;;;;;22.10;77.28;98952.19;342572;28;1195;-78
2022/06/24 00:28:15;;;;;;;4.32;1.58;;;;;;;22.10;77.51;98958.31;343021;28;1608;-78
2022/06/24 00:28:27;;;;;;;5.18;1.60;;;;;;;22.09;77.65;98955.81;343272;28;1059;-78
2022/06/24 00:28:39;;;;;;;5.57;1.67;;;;;;;22.10;77.78;98952.19;343438;28;1151;-78
2022/06/24 00:29:00;;;;;;;7.07;1.60;;;;;;;22.11;77.34;98948.56;342605;28;1485;-78
2022/06/24 00:29:18;;;;;;;6.57;1.70;;;;;;;22.11;77.23;98953.84;340829;28;1698;-78
2022/06/24 00:29:32;;;;;;;7.37;1.67;;;;;;;22.11;77.18;98948.56;341809;28;1598;-78
2022/06/24 00:29:45;;;;;;;7.35;1.65;;;;;;;22.11;76.83;98945.91;340958;29;1172;-77
2022/06/24 00:29:57;;;;;;;5.80;1.60;;;;;;;22.09;76.70;98945.22;341068;28;1705;-78
2022/06/24 00:30:14;;;;;;;6.25;1.65;;;;;;;22.09;77.26;98955.81;342141;28;1541;-78
2022/06/24 00:30:26;;;;;;;6.82;1.70;;;;;;;22.10;77.08;98946.91;342149;28;1217;-78
2022/06/24 00:30:41;;;;;;;7.05;1.70;;;;;;;22.09;76.95;98945.22;342904;28;2105;-78
2022/06/24 00:30:55;;;;;;;7.63;1.77;;;;;;;22.10;77.38;98941.63;343381;28;1189;-78
2022/06/24 00:31:07;;;;;;;5.97;1.70;;;;;;;22.08;76.98;98948.84;343823;28;1182;-78
2022/06/24 00:31:19;;;;;;;6.32;1.80;;;;;;;22.11;76.90;98943.25;342966;28;1677;-78
2022/06/24 00:31:32;;;;;;;6.53;1.67;;;;;;;22.12;76.83;98944.94;343728;28;1438;-78
2022/06/24 00:32:05;;;;;;;5.63;1.53;;;;;;;22.12;76.98;98944.94;344008;28;1197;-78
2022/06/24 00:32:31;;;;;;;6.32;1.55;;;;;;;22.11;76.80;98948.56;343203;28;1798;-78
2022/06/24 00:32:45;;;;;;;3.30;1.50;;;;;;;22.08;76.79;98943.56;343707;28;1019;-78
2022/06/24 00:33:23;;;;;;;4.65;1.60;;;;;;;22.11;76.94;98945.91;343923;28;1123;-78
2022/06/24 00:33:36;;;;;;;3.60;1.40;;;;;;;22.07;76.48;98942.75;340988;28;1656;-78
2022/06/24 00:33:48;;;;;;;5.80;1.60;;;;;;;22.06;76.52;98946.34;343014;28;1290;-78
2022/06/24 00:34:00;;;;;;;7.55;1.70;;;;;;;22.05;76.30;98943.84;342403;28;1071;-78
2022/06/24 00:34:24;;;;;;;6.78;1.58;;;;;;;21.97;76.42;98947.16;342105;28;1115;-78
2022/06/24 00:34:38;;;;;;;6.53;1.63;;;;;;;21.98;77.17;98946.22;342142;28;1817;-78
2022/06/24 00:35:05;;;;;;;6.65;1.75;;;;;;;21.95;76.37;98943.84;340783;28;1120;-78
2022/06/24 00:35:18;;;;;;;6.25;1.60;;;;;;;21.89;76.04;98950.53;340743;28;1894;-78
2022/06/24 00:35:37;;;;;;;6.95;1.60;;;;;;;21.90;75.92;98951.38;341613;28;1363;-78
2022/06/24 00:35:50;;;;;;;4.63;1.60;;;;;;;21.91;76.07;98947.72;340787;29;1055;-78
2022/06/24 00:36:05;;;;;;;3.77;1.40;;;;;;;21.92;75.96;98947.59;341665;28;1089;-78
2022/06/24 00:36:18;;;;;;;5.60;1.60;;;;;;;21.94;75.71;98953.59;342099;28;1740;-78
2022/06/24 00:36:30;;;;;;;5.53;1.63;;;;;;;21.92;75.59;98954.72;343348;28;1113;-78
2022/06/24 00:36:42;;;;;;;4.78;1.67;;;;;;;21.94;75.73;98952.75;343655;28;1123;-78
2022/06/24 00:36:54;;;;;;;5.88;1.77;;;;;;;21.94;75.97;98956.22;344478;28;1214;-78
2022/06/24 00:37:25;;;;;;;6.00;1.70;;;;;;;21.98;75.58;98958.63;343305;28;1145;-78
2022/06/24 00:37:42;;;;;;;5.60;1.45;;;;;;;21.99;75.82;98965.56;343386;28;1734;-78
2022/06/24 00:37:56;;;;;;;5.35;1.52;;;;;;;21.99;76.68;98960.28;343324;28;1745;-78
2022/06/24 00:38:20;;;;;;;6.00;1.58;;;;;;;21.99;77.14;98957.63;342973;28;2292;-78
2022/06/24 00:38:36;;;;;;;7.32;1.60;;;;;;;21.99;77.46;98960.28;342432;28;1222;-78
2022/06/24 00:38:55;;;;;;;5.75;1.50;;;;;;;21.99;76.79;98961.09;342640;28;1201;-78
2022/06/24 00:39:07;;;;;;;6.35;1.52;;;;;;;21.99;76.91;98969.03;344304;28;1095;-78
2022/06/24 00:39:19;;;;;;;4.38;1.52;;;;;;;22.00;76.53;98967.25;343673;28;1750;-78
2022/06/24 00:39:35;;;;;;;4.10;1.40;;;;;;;22.01;76.37;98963.63;343793;28;1495;-78
2022/06/24 00:39:47;;;;;;;4.97;1.30;;;;;;;22.02;76.64;98965.31;342200;28;2162;-78
2022/06/24 00:40:03;;;;;;;5.25;1.40;;;;;;;22.01;76.99;98960.97;342019;28;1713;-78
2022/06/24 00:40:16;;;;;;;5.43;1.50;;;;;;;22.02;76.94;98970.59;342185;28;1099;-78
2022/06/24 00:40:31;;;;;;;4.60;1.40;;;;;;;22.04;76.38;98968.63;343630;28;1474;-78
2022/06/24 00:40:43;;;;;;;5.20;1.30;;;;;;;22.04;76.53;98968.63;342636;28;1956;-78
2022/06/24 00:41:08;;;;;;;5.38;1.35;;;;;;;22.04;76.76;98973.94;342317;28;1790;-78
2022/06/24 00:41:25;;;;;;;5.85;1.50;;;;;;;22.05;76.94;98975.59;342889;28;1953;-78
2022/06/24 00:41:38;;;;;;;7.23;1.50;;;;;;;22.06;76.86;98971.97;342783;28;1681;-78
2022/06/24 00:41:51;;;;;;;6.55;1.55;;;;;;;22.05;76.71;98976.41;343265;28;1699;-78
2022/06/24 00:42:05;;;;;;;5.90;1.70;;;;;;;22.06;76.68;98974.63;344159;28;1169;-78
2022/06/24 00:42:18;;;;;;;5.75;1.90;;;;;;;22.05;76.91;98978.22;342252;28;1767;-78
2022/06/24 00:42:31;;;;;;;5.72;1.90;;;;;;;22.05;77.19;98967.66;342825;28;1201;-77
2022/06/24 00:42:46;;;;;;;6.82;1.80;;;;;;;22.06;76.59;98974.63;342408;28;1246;-77
2022/06/24 00:42:59;;;;;;;6.30;1.70;;;;;;;22.04;77.26;98973.94;343879;28;1228;-77
2022/06/24 00:43:19;;;;;;;5.22;1.80;;;;;;;22.04;77.19;98979.22;343969;28;1043;-77
2022/06/24 00:43:41;;;;;;;5.63;2.00;;;;;;;22.05;77.17;98975.59;343563;28;1390;-77
2022/06/24 00:43:58;;;;;;;5.53;1.90;;;;;;;22.03;77.09;98972.25;344695;28;1143;-77
2022/06/24 00:44:12;;;;;;;4.20;1.75;;;;;;;22.03;77.05;98972.25;343951;28;1336;-77
2022/06/24 00:44:28;;;;;;;4.15;1.60;;;;;;;22.05;76.90;98971.13;343547;28;1193;-77
2022/06/24 00:44:48;;;;;;;6.93;1.75;;;;;;;22.07;76.81;98973.63;342913;28;1657;-77
2022/06/24 00:45:18;;;;;;;8.23;1.80;;;;;;;22.08;76.82;98970.03;343230;28;1637;-77
2022/06/24 00:45:45;;;;;;;5.97;1.90;;;;;;;22.09;76.73;98976.97;343515;28;1298;-77
2022/06/24 00:46:08;;;;;;;5.75;1.65;;;;;;;22.09;76.40;98969.91;342685;28;851;-77
2022/06/24 00:46:23;;;;;;;6.15;1.75;;;;;;;22.09;76.48;98966.41;342313;28;1795;-77
2022/06/24 00:46:37;;;;;;;8.27;1.85;;;;;;;22.10;76.31;98970.72;345228;28;1707;-77
2022/06/24 00:46:52;;;;;;;8.70;1.73;;;;;;;22.11;76.17;98975.88;344846;28;1227;-77
2022/06/24 00:47:05;;;;;;;7.03;1.60;;;;;;;22.13;76.46;98965.13;343574;28;1689;-77
2022/06/24 00:47:17;;;;;;;6.22;1.67;;;;;;;22.13;76.05;98967.78;344556;28;1816;-77
2022/06/24 00:47:31;;;;;;;8.95;1.73;;;;;;;22.12;76.23;98972.25;343537;28;1410;-77
2022/06/24 00:47:44;;;;;;;8.75;1.80;;;;;;;22.15;76.47;98971.13;343351;28;1654;-77
2022/06/24 00:47:57;;;;;;;4.30;1.58;;;;;;;22.15;76.06;98968.47;343883;28;1239;-77
2022/06/24 00:48:14;;;;;;;3.67;1.27;;;;;;;22.16;76.01;98967.50;342966;28;1737;-77
2022/06/24 00:48:29;;;;;;;4.05;1.45;;;;;;;22.16;74.48;98962.22;342950;28;1494;-77
2022/06/24 00:48:46;;;;;;;4.10;1.42;;;;;;;22.14;73.36;98969.47;341279;28;1027;-77
2022/06/24 00:48:59;;;;;;;4.15;1.30;;;;;;;22.11;73.61;98967.94;340768;29;1040;-77
2022/06/24 00:49:13;;;;;;;4.50;1.35;;;;;;;22.09;73.71;98967.25;340773;29;1019;-77
2022/06/24 00:49:27;;;;;;;5.57;1.47;;;;;;;22.08;74.16;98964.75;341206;28;1842;-77
2022/06/24 00:49:39;;;;;;;6.53;1.45;;;;;;;22.04;74.57;98964.19;342596;28;1129;-79
2022/06/24 00:49:54;;;;;;;7.68;1.50;;;;;;;22.03;75.15;98964.31;343043;28;1089;-79
2022/06/24 00:50:18;;;;;;;6.63;1.40;;;;;;;21.99;75.56;98963.75;341206;28;1558;-80
2022/06/24 00:50:32;;;;;;;5.47;1.50;;;;;;;21.99;75.65;98970.84;343924;28;1629;-80
2022/06/24 00:50:46;;;;;;;5.90;1.50;;;;;;;21.97;75.44;98957.75;343525;28;2069;-80
2022/06/24 00:50:59;;;;;;;4.70;1.40;;;;;;;21.97;75.84;98965.69;343499;28;1095;-80
2022/06/24 00:51:11;;;;;;;3.90;1.38;;;;;;;21.96;75.91;98960.56;343141;28;1028;-79
2022/06/24 00:51:32;;;;;;;3.40;1.40;;;;;;;21.97;75.07;98951.63;342919;28;1637;-77
2022/06/24 00:51:44;;;;;;;3.83;1.50;;;;;;;21.97;74.41;98956.94;344051;28;1075;-78
2022/06/24 00:51:56;;;;;;;4.13;1.50;;;;;;;21.94;74.33;98953.59;343545;28;1596;-77
2022/06/24 00:52:10;;;;;;;3.95;1.40;;;;;;;21.93;74.55;98959.00;343409;28;1250;-78
2022/06/24 00:52:22;;;;;;;3.92;1.40;;;;;;;21.92;74.83;98955.53;342897;28;1778;-77
2022/06/24 00:52:38;;;;;;;2.88;1.20;;;;;;;21.90;75.10;98954.00;342947;28;1742;-77
2022/06/24 00:52:58;;;;;;;3.10;1.30;;;;;;;21.93;75.40;98954.59;341447;28;1176;-77
2022/06/24 00:53:11;;;;;;;4.43;1.40;;;;;;;21.97;75.09;98951.63;341981;28;1966;-77
2022/06/24 00:53:23;;;;;;;4.22;1.30;;;;;;;21.97;75.09;98951.63;341416;28;2142;-77
2022/06/24 00:53:44;;;;;;;3.88;1.35;;;;;;;22.00;75.03;98954.03;341408;28;1629;-77
2022/06/24 00:53:57;;;;;;;3.40;1.25;;;;;;;22.02;75.05;98949.41;342626;28;1225;-77
2022/06/24 00:54:14;;;;;;;3.27;1.20;;;;;;;22.02;75.76;98950.25;343707;28;1083;-77
2022/06/24 00:54:26;;;;;;;3.28;1.23;;;;;;;22.04;75.33;98952.75;342359;28;1702;-77
2022/06/24 00:54:38;;;;;;;3.42;1.30;;;;;;;22.06;75.51;98956.09;342951;28;1708;-77
2022/06/24 00:54:50;;;;;;;3.75;1.40;;;;;;;22.06;75.63;98951.63;342338;28;1160;-77
2022/06/24 00:55:02;;;;;;;4.70;1.55;;;;;;;22.07;75.56;98952.47;342567;28;1079;-77
2022/06/24 00:55:20;;;;;;;5.70;1.58;;;;;;;22.10;75.85;98952.19;343418;28;1222;-77
2022/06/24 00:55:36;;;;;;;5.40;1.45;;;;;;;22.10;76.42;98958.31;343558;28;1539;-77
2022/06/24 00:55:48;;;;;;;4.93;1.38;;;;;;;22.11;76.29;98948.56;344021;28;971;-77
2022/06/24 00:56:01;;;;;;;4.68;1.40;;;;;;;22.13;76.33;98951.91;342896;28;1622;-77
2022/06/24 00:56:19;;;;;;;4.82;1.45;;;;;;;22.13;76.48;98947.47;343453;28;1118;-77
2022/06/24 00:56:31;;;;;;;5.00;1.40;;;;;;;22.15;76.58;98949.94;343322;28;1489;-77
2022/06/24 00:56:46;;;;;;;4.85;1.40;;;;;;;22.14;76.51;98946.47;341541;29;773;-78
2022/06/24 00:56:58;;;;;;;4.50;1.70;;;;;;;22.14;76.64;98943.00;341269;29;887;-76
2022/06/24 00:57:11;;;;;;;5.80;1.80;;;;;;;22.15;76.66;98942.00;339834;29;1056;-76
2022/06/24 00:57:23;;;;;;;5.88;1.67;;;;;;;22.15;76.61;98949.94;339521;29;1913;-76
2022/06/24 00:57:36;;;;;;;5.13;1.58;;;;;;;22.13;76.42;98946.59;342141;28;1048;-76
2022/06/24 00:57:48;;;;;;;4.53;1.52;;;;;;;22.12;76.82;98940.50;342443;28;1165;-75
2022/06/24 00:58:00;;;;;;;5.18;1.48;;;;;;;22.10;76.70;98941.63;342128;28;1435;-76
2022/06/24 00:58:16;;;;;;;5.47;1.50;;;;;;;22.09;76.34;98945.22;341498;28;1741;-76
2022/06/24 00:58:28;;;;;;;4.50;1.60;;;;;;;22.07;76.46;98939.22;340499;28;1167;-76
2022/06/24 00:58:50;;;;;;;4.32;1.60;;;;;;;22.07;76.67;98941.88;340986;29;1133;-76
2022/06/24 00:59:05;;;;;;;5.22;1.65;;;;;;;22.06;76.43;98943.69;340445;29;1150;-75
2022/06/24 00:59:17;;;;;;;6.10;1.77;;;;;;;22.07;76.59;98941.88;342105;28;1891;-75
2022/06/24 00:59:34;;;;;;;7.35;1.73;;;;;;;22.04;76.72;98937.72;342268;28;1825;-75
2022/06/24 00:59:47;;;;;;;5.63;1.50;;;;;;;22.05;76.82;98946.47;340717;29;1159;-76
2022/06/24 01:00:00;;;;;;;5.03;1.63;;;;;;;22.06;76.77;98934.94;341214;29;1130;-76
2022/06/24 01:00:13;;;;;;;5.72;1.60;;;;;;;22.07;76.98;98936.59;340331;29;1723;-76
2022/06/24 01:00:27;;;;;;;5.50;1.70;;;;;;;22.05;77.13;98944.66;339774;28;1085;-76
2022/06/24 01:00:43;;;;;;;5.30;1.70;;;;;;;22.03;76.85;98943.13;341373;28;911;-76
2022/06/24 01:00:58;;;;;;;5.82;1.80;;;;;;;22.02;76.75;98949.41;340962;29;1242;-76
2022/06/24 01:01:10;;;;;;;6.28;1.73;;;;;;;22.02;77.18;98946.78;339533;29;1231;-76
2022/06/24 01:01:31;;;;;;;5.53;1.60;;;;;;;22.03;77.14;98943.97;339808;29;1653;-76
2022/06/24 01:01:43;;;;;;;5.10;1.58;;;;;;;22.05;76.79;98943.84;342177;28;1150;-76
2022/06/24 01:01:56;;;;;;;5.78;1.50;;;;;;;22.05;76.52;98942.00;342280;28;1184;-76
2022/06/24 01:02:16;;;;;;;4.10;1.33;;;;;;;22.09;75.90;98935.50;342225;28;1065;-76
2022/06/24 01:02:31;;;;;;;3.30;1.30;;;;;;;22.09;76.17;98935.50;341856;28;1484;-76
2022/06/24 01:03:03;;;;;;;4.47;1.40;;;;;;;22.12;75.88;98935.19;340914;29;1219;-76
2022/06/24 01:03:35;;;;;;;6.25;1.50;;;;;;;22.14;76.70;98930.59;342406;28;1716;-76
2022/06/24 01:03:47;;;;;;;3.80;1.30;;;;;;;22.18;76.39;98933.78;342044;28;1025;-76
2022/06/24 01:04:00;;;;;;;3.15;1.30;;;;;;;22.17;76.62;98934.75;342119;28;1023;-76
2022/06/24 01:04:15;;;;;;;3.85;1.35;;;;;;;22.17;76.14;98932.13;342448;28;1187;-75
2022/06/24 01:04:31;;;;;;;4.63;1.42;;;;;;;22.18;75.50;98928.50;343207;28;2088;-76
2022/06/24 01:04:44;;;;;;;5.47;1.55;;;;;;;22.19;75.40;98935.44;343432;28;2139;-76
2022/06/24 01:05:06;;;;;;;5.38;1.38;;;;;;;22.21;74.62;98933.50;343616;28;1086;-76
2022/06/24 01:05:18;;;;;;;4.90;1.30;;;;;;;22.21;74.34;98933.50;342517;28;1809;-76
2022/06/24 01:05:32;;;;;;;4.18;1.30;;;;;;;22.21;74.75;98932.66;343255;28;1476;-76
2022/06/24 01:05:44;;;;;;;4.15;1.20;;;;;;;22.21;74.21;98928.19;342521;28;2034;-76
2022/06/24 01:05:56;;;;;;;5.20;1.40;;;;;;;22.22;74.55;98929.06;342247;28;2027;-75
2022/06/24 01:06:09;;;;;;;5.53;1.50;;;;;;;22.21;74.50;98933.50;343398;28;1562;-75
2022/06/24 01:06:21;;;;;;;5.47;1.50;;;;;;;22.22;74.68;98927.25;343573;28;1241;-75
2022/06/24 01:06:34;;;;;;;4.38;1.42;;;;;;;22.23;75.10;98928.91;342073;28;1276;-76
2022/06/24 01:06:46;;;;;;;3.92;1.50;;;;;;;22.23;74.23;98926.25;342314;28;1135;-76
2022/06/24 01:06:58;;;;;;;3.97;1.50;;;;;;;22.23;74.17;98926.25;341363;28;1206;-76
2022/06/24 01:07:12;;;;;;;3.00;1.38;;;;;;;22.26;73.87;98928.66;341884;28;1861;-76
2022/06/24 01:07:25;;;;;;;3.25;1.30;;;;;;;22.26;73.63;98915.41;341533;28;1731;-76
2022/06/24 01:07:39;;;;;;;4.65;1.33;;;;;;;22.28;73.87;98920.59;342143;28;1668;-76
2022/06/24 01:07:53;;;;;;;4.80;1.42;;;;;;;22.29;73.45;98925.72;341382;28;1662;-75
2022/06/24 01:08:10;;;;;;;4.32;1.27;;;;;;;22.29;73.07;98920.41;342385;28;1447;-76
2022/06/24 01:08:42;;;;;;;3.83;1.30;;;;;;;22.29;73.73;98920.41;342415;28;1023;-76
2022/06/24 01:08:57;;;;;;;5.60;1.40;;;;;;;22.31;74.90;98918.47;343393;28;1141;-76
2022/06/24 01:09:29;;;;;;;4.82;1.48;;;;;;;22.31;75.36;98918.47;342565;28;1044;-76
2022/06/24 01:09:41;;;;;;;4.47;1.35;;;;;;;22.31;75.71;98913.16;342948;28;1253;-76
2022/06/24 01:09:53;;;;;;;4.78;1.60;;;;;;;22.33;76.29;98913.88;342835;28;1788;-75
2022/06/24 01:10:08;;;;;;;4.82;1.60;;;;;;;22.33;76.00;98913.88;342891;28;1237;-75
2022/06/24 01:10:21;;;;;;;3.95;1.50;;;;;;;22.32;75.60;98909.56;343517;28;1708;-76
2022/06/24 01:10:34;;;;;;;3.47;1.50;;;;;;;22.31;75.74;98913.16;342969;28;1636;-76
2022/06/24 01:10:48;;;;;;;4.75;1.52;;;;;;;22.29;75.73;98914.28;342462;28;1055;-76
2022/06/24 01:11:02;;;;;;;5.57;1.60;;;;;;;22.25;75.18;98908.44;342604;28;2086;-76
2022/06/24 01:11:34;;;;;;;5.15;1.63;;;;;;;22.25;75.62;98905.78;342365;28;1218;-76
2022/06/24 01:11:46;;;;;;;6.10;1.50;;;;;;;22.27;75.96;98913.59;342058;28;1271;-76
2022/06/24 01:11:58;;;;;;;6.75;1.60;;;;;;;22.27;75.59;98908.31;342297;28;1112;-76
2022/06/24 01:12:11;;;;;;;5.40;1.65;;;;;;;22.27;75.79;98911.78;342318;28;1112;-76
2022/06/24 01:12:24;;;;;;;4.38;1.60;;;;;;;22.26;75.92;98910.13;342434;28;1689;-76
2022/06/24 01:12:40;;;;;;;5.55;1.73;;;;;;;22.26;76.23;98909.28;342498;28;1706;-76
2022/06/24 01:12:54;;;;;;;6.43;1.98;;;;;;;22.27;76.36;98910.94;342159;28;1072;-76
2022/06/24 01:13:13;;;;;;;4.63;2.10;;;;;;;22.23;76.32;98910.38;342536;28;1133;-76
2022/06/24 01:13:26;;;;;;;4.70;1.95;;;;;;;22.24;76.09;98909.44;342736;28;1813;-76
2022/06/24 01:13:38;;;;;;;5.38;1.70;;;;;;;22.23;76.30;98905.06;342083;28;1748;-75
2022/06/24 01:13:53;;;;;;;5.60;1.63;;;;;;;22.23;76.06;98905.06;342182;28;1030;-76
2022/06/24 01:14:06;;;;;;;4.78;1.63;;;;;;;22.25;75.64;98905.78;343243;28;1110;-76
2022/06/24 01:14:20;;;;;;;4.47;1.60;;;;;;;22.27;76.45;98905.66;342916;28;1832;-76
2022/06/24 01:14:32;;;;;;;4.07;1.60;;;;;;;22.26;76.31;98899.53;342621;28;1332;-76
2022/06/24 01:14:44;;;;;;;4.85;1.67;;;;;;;22.27;76.24;98901.19;344240;28;1102;-76
2022/06/24 01:14:56;;;;;;;6.63;1.70;;;;;;;22.28;76.41;98902.88;344283;28;1958;-75
2022/06/24 01:15:09;;;;;;;7.32;1.80;;;;;;;22.28;76.65;98902.06;343444;28;1547;-76
2022/06/24 01:15:21;;;;;;;6.18;1.70;;;;;;;22.28;76.45;98891.47;342241;28;1111;-76
2022/06/24 01:15:33;;;;;;;5.45;1.58;;;;;;;22.29;76.03;98898.41;343370;28;1292;-76
2022/06/24 01:15:46;;;;;;;5.35;1.40;;;;;;;22.28;75.52;98894.09;343612;28;1230;-76
2022/06/24 01:15:58;;;;;;;4.82;1.40;;;;;;;22.29;75.84;98893.94;344019;28;1011;-76
2022/06/24 01:16:13;;;;;;;5.07;1.60;;;;;;;22.29;75.45;98893.94;343899;28;883;-76
2022/06/24 01:16:26;;;;;;;4.82;1.50;;;;;;;22.30;76.14;98890.31;342470;28;1566;-75
2022/06/24 01:16:38;;;;;;;6.15;1.60;;;;;;;22.29;75.86;98888.66;343390;28;1694;-75
2022/06/24 01:16:51;;;;;;;6.38;1.50;;;;;;;22.29;75.20;98893.94;343763;28;1050;-76
2022/06/24 01:17:04;;;;;;;4.80;1.45;;;;;;;22.29;75.83;98893.94;343594;28;1780;-76
2022/06/24 01:17:37;;;;;;;4.32;1.50;;;;;;;22.30;76.21;98892.97;343666;28;1256;-76
2022/06/24 01:17:51;;;;;;;6.68;1.80;;;;;;;22.30;76.14;98895.63;342287;28;1830;-76